Forside
METAR-TAF:

METAR-TAF

Lufthavne :

Rexburg-Madison County Airport

Rexburg, Idaho, USA

Breddekreds: 43-49-54N, længdekreds: 111-48-22W, højde: 1481 m

Aktuelle vejr

Denne rapport blev lavet for 8 minutter siden, kl. 01:22 UTC
Vind 5 kt fra vest
Temperatur -6°C
Fugtighed 86%
Tryk 1018 hPa
Sigt: 6.4 km
Overskyet i en højde af 1600 ft
let sne, dis

METAR: KRXE 240122Z AUTO 26005KT 4SM -SN BR OVC016 M06/M08 A3007 RMK AO2 P0000 T10561078

Tid: 18:30 (01:30 UTC)


TAF: fraværende

Vejrobservationer og prognoser fra mere end 4000 lufthavne (METAR og TAF).

De gule og røde prikker repræsenterer de meteorologiske stationer.

Flyt musen over at se navnet på stationen.

Så klik over at se vejr observationer og prognoser.

At skifte det kort: Klik på de grønne knapper med et sort kors for at zoome ind; på den grønne knap med en bindestreg for at zoome ud; eller på de grønne pile for tilstødende kort.


METAR-TAF: